Palma de Mallorca, Spain

10:41 AM CEST on April 24, 2017 (GMT +0200)
Palma De Mallorca | | Change Station

Elev 26 ft 39.55 °N, 2.73 °E | Updated 11 minutes ago

Clear
Clear
66 °F
Feels Like 66 °F
N
7
Wind Variable Wind from NE

Today
High -- | Low -- °F
--% Chance of Precip.
Yesterday
High -- | Low -- °F
Precip. -- in
Pressure 30.04 in
Visibility -9999.0 miles
Clouds
Dew Point 48 °F
Humidity 52%
Rainfall 0.00 in
Snow Depth Not available.
6:59 AM 8:36 PM
Waning Crescent, 6% visible
METAR LEPA 240830Z 05006KT 010V090 CAVOK 19/09 Q1017 NOSIG
Pressure 30.04 in
Visibility -9999.0 miles
Clouds
Dew Point 48 °F
Humidity 52%
Rainfall 0.00 in
Snow Depth Not available.
6:59 AM 8:36 PM
Waning Crescent, 6% visible
METAR LEPA 240830Z 05006KT 010V090 CAVOK 19/09 Q1017 NOSIG

Get Severe Weather Alerts

Thanks for signing up!

Be on the lookout for a verification email in your inbox.

You'll start receiving the daily forecast at 8 AM.

×

10-Day Weather Forecast

×

Almanac

Astronomy

Apr. 24, 2017 Rise Set
Actual Time
Civil Twilight
Nautical Twilight
Astronomical Twilight
Moon
Length of Visible Light
Length of Day
Tomorrow will be .
, % of the Moon is Illuminated

Today's Extremes

Country Highs Country Lows

Community

WunderPhotos

WunderBlog® & News

Nearby

Air Quality

  Air Quality AQ Index Pollutant
Not available.

Snow Depth

Station Depth Elevation

Earthquake Activity

City Distance Mag. Time & Date
Minimum magnitude displayed is 2.5.

Coastal Water Temperatures

Place Temperature

Stations

Nearby Weather Stations

Station Location Temp. Windchill Dew Point Humidity Wind Precip. Elev Updated Type